createdAt,value
2018-04-17T00:01:31.436Z,13.29
2018-04-17T00:03:58.908Z,13.29
2018-04-17T00:06:26.400Z,13.26
2018-04-17T00:08:53.887Z,13.27
2018-04-17T00:11:21.395Z,13.23
2018-04-17T00:13:49.019Z,13.22
2018-04-17T00:16:16.503Z,13.23
2018-04-17T00:18:43.985Z,13.24
2018-04-17T00:21:11.491Z,13.25
2018-04-17T00:23:38.955Z,13.28
2018-04-17T00:26:06.564Z,13.25
2018-04-17T00:28:34.099Z,13.22
2018-04-17T00:31:01.762Z,13.20
2018-04-17T00:33:29.432Z,13.13
2018-04-17T00:35:57.171Z,13.05
2018-04-17T00:38:24.899Z,12.98
2018-04-17T00:40:52.372Z,12.90
2018-04-17T00:43:19.876Z,12.77
2018-04-17T00:45:47.348Z,12.68
2018-04-17T00:48:14.860Z,12.59
2018-04-17T00:50:42.328Z,12.45
2018-04-17T00:53:21.702Z,12.33
2018-04-17T00:55:49.185Z,12.20
2018-04-17T00:58:16.709Z,12.09
2018-04-17T01:00:44.342Z,12.03
2018-04-17T01:03:12.078Z,11.93
2018-04-17T01:05:39.690Z,11.90
2018-04-17T01:08:07.558Z,11.88
2018-04-17T01:10:35.611Z,12.01
2018-04-17T01:13:03.272Z,12.04
2018-04-17T01:15:30.772Z,12.01
2018-04-17T01:17:59.262Z,12.00
2018-04-17T01:20:27.073Z,11.97
2018-04-17T01:22:55.160Z,11.90
2018-04-17T01:25:22.717Z,11.78
2018-04-17T01:27:50.595Z,11.74
2018-04-17T01:30:18.302Z,11.68
2018-04-17T01:32:45.998Z,11.63
2018-04-17T01:35:13.498Z,11.61
2018-04-17T01:37:40.995Z,11.55
2018-04-17T01:40:08.477Z,11.48
2018-04-17T01:42:35.935Z,11.39
2018-04-17T01:45:03.453Z,11.34
2018-04-17T01:47:30.948Z,11.32
2018-04-17T01:49:58.465Z,11.27
2018-04-17T01:52:25.956Z,11.20
2018-04-17T01:54:53.667Z,11.12
2018-04-17T01:57:21.215Z,11.07
2018-04-17T01:59:48.791Z,11.02
2018-04-17T02:02:16.282Z,10.92
2018-04-17T02:04:43.786Z,10.92
2018-04-17T02:07:11.289Z,10.89
2018-04-17T02:09:38.838Z,10.83
2018-04-17T02:12:06.324Z,10.83
2018-04-17T02:14:33.865Z,10.80
2018-04-17T02:17:01.359Z,10.76
2018-04-17T02:19:28.906Z,10.78
2018-04-17T02:21:56.501Z,10.74
2018-04-17T02:24:23.990Z,10.66
2018-04-17T02:26:51.541Z,10.57
2018-04-17T02:29:19.045Z,10.46
2018-04-17T02:31:46.533Z,10.43
2018-04-17T02:34:14.019Z,10.48
2018-04-17T02:36:41.488Z,10.53
2018-04-17T02:39:08.976Z,10.55
2018-04-17T02:41:36.464Z,10.52
2018-04-17T02:44:03.979Z,10.43
2018-04-17T02:46:31.444Z,10.43
2018-04-17T02:48:59.264Z,10.45
2018-04-17T02:51:26.862Z,10.43
2018-04-17T02:53:54.365Z,10.37
2018-04-17T02:56:21.835Z,10.33
2018-04-17T02:58:49.325Z,10.20
2018-04-17T03:01:16.819Z,10.17
2018-04-17T03:03:44.349Z,10.11
2018-04-17T03:06:11.972Z,10.05
2018-04-17T03:08:39.463Z,10.01
2018-04-17T03:11:06.958Z,10.00
2018-04-17T03:13:34.451Z,10.00
2018-04-17T03:16:01.964Z,10.01
2018-04-17T03:18:29.436Z,10.01
2018-04-17T03:20:56.927Z,9.97
2018-04-17T03:23:24.395Z,9.93
2018-04-17T03:25:51.905Z,9.87
2018-04-17T03:28:19.403Z,9.79
2018-04-17T03:30:46.966Z,9.74
2018-04-17T03:33:14.511Z,9.67
2018-04-17T03:35:42.019Z,9.66
2018-04-17T03:38:09.483Z,9.60
2018-04-17T03:40:37.000Z,9.53
2018-04-17T03:43:04.476Z,9.44
2018-04-17T03:45:31.969Z,9.41
2018-04-17T03:47:59.472Z,9.33
2018-04-17T03:50:26.967Z,9.32
2018-04-17T03:52:54.427Z,9.24
2018-04-17T03:55:21.919Z,9.17
2018-04-17T03:57:49.382Z,9.11
2018-04-17T04:00:16.892Z,9.03
2018-04-17T04:02:44.400Z,9.08
2018-04-17T04:05:11.842Z,9.11
2018-04-17T04:07:39.333Z,9.07
2018-04-17T04:10:06.795Z,9.02
2018-04-17T04:12:34.343Z,9.10
2018-04-17T04:15:01.931Z,9.23
2018-04-17T04:17:41.192Z,9.25
2018-04-17T04:20:20.683Z,9.19
2018-04-17T04:23:00.016Z,9.21
2018-04-17T04:25:52.426Z,9.15
2018-04-17T04:28:19.893Z,9.09
2018-04-17T04:30:47.356Z,9.02
2018-04-17T04:33:14.851Z,9.00
2018-04-17T04:35:42.429Z,8.96
2018-04-17T04:38:09.923Z,8.98
2018-04-17T04:40:37.412Z,9.03
2018-04-17T04:43:04.944Z,9.02
2018-04-17T04:45:32.420Z,9.13
2018-04-17T04:47:59.902Z,9.13
2018-04-17T04:50:27.443Z,9.12
2018-04-17T04:52:54.926Z,9.10
2018-04-17T04:55:22.418Z,9.18
2018-04-17T04:57:49.940Z,9.22
2018-04-17T05:00:17.412Z,9.24
2018-04-17T05:02:44.902Z,9.26
2018-04-17T05:05:12.375Z,9.19
2018-04-17T05:07:39.858Z,9.20
2018-04-17T05:10:07.413Z,9.19
2018-04-17T05:12:34.900Z,9.21
2018-04-17T05:15:02.372Z,9.24
2018-04-17T05:17:29.878Z,9.27
2018-04-17T05:19:57.424Z,9.32
2018-04-17T05:22:25.011Z,9.36
2018-04-17T05:24:52.567Z,9.38
2018-04-17T05:27:20.057Z,9.42
2018-04-17T05:29:47.531Z,9.45
2018-04-17T05:32:15.008Z,9.45
2018-04-17T05:34:42.500Z,9.48
2018-04-17T05:37:09.964Z,9.57
2018-04-17T05:39:37.471Z,9.63
2018-04-17T05:42:04.943Z,9.67
2018-04-17T05:44:32.419Z,9.71
2018-04-17T05:47:00.840Z,9.78
2018-04-17T05:49:28.332Z,9.84
2018-04-17T05:51:55.822Z,9.87
2018-04-17T05:54:23.319Z,9.93
2018-04-17T05:56:50.796Z,10.02
2018-04-17T05:59:18.384Z,10.08
2018-04-17T06:01:45.859Z,10.13
2018-04-17T06:04:13.355Z,10.16
2018-04-17T06:06:40.857Z,10.24
2018-04-17T06:09:08.375Z,10.29
2018-04-17T06:11:35.908Z,10.34
2018-04-17T06:14:03.412Z,10.41
2018-04-17T06:16:30.883Z,10.48
2018-04-17T06:18:58.383Z,10.55
2018-04-17T06:21:25.937Z,10.62
2018-04-17T06:23:53.435Z,10.72
2018-04-17T06:26:20.932Z,10.83
2018-04-17T06:28:48.446Z,10.91
2018-04-17T06:31:15.951Z,10.99
2018-04-17T06:33:43.471Z,11.07
2018-04-17T06:36:10.982Z,11.12
2018-04-17T06:38:38.495Z,11.14
2018-04-17T06:41:06.043Z,11.21
2018-04-17T06:43:34.623Z,11.28
2018-04-17T06:46:02.222Z,11.38
2018-04-17T06:48:29.730Z,11.45
2018-04-17T06:50:57.227Z,11.54
2018-04-17T06:53:24.783Z,11.62
2018-04-17T06:55:52.285Z,11.63
2018-04-17T06:58:19.759Z,11.69
2018-04-17T07:00:48.686Z,11.75
2018-04-17T07:03:16.193Z,11.82
2018-04-17T07:05:43.772Z,11.92
2018-04-17T07:08:11.296Z,12.01
2018-04-17T07:10:38.796Z,12.00
2018-04-17T07:13:06.271Z,12.02
2018-04-17T07:15:33.801Z,12.13
2018-04-17T07:18:01.279Z,12.25
2018-04-17T07:20:28.791Z,12.38
2018-04-17T07:22:56.296Z,12.46
2018-04-17T07:25:23.787Z,12.52
2018-04-17T07:27:51.298Z,12.58
2018-04-17T07:30:18.848Z,12.68
2018-04-17T07:32:46.335Z,12.77
2018-04-17T07:35:13.828Z,12.78
2018-04-17T07:37:41.338Z,12.83
2018-04-17T07:40:09.015Z,12.93
2018-04-17T07:42:36.531Z,13.06
2018-04-17T07:45:04.018Z,13.16
2018-04-17T07:47:31.501Z,13.26
2018-04-17T07:49:59.014Z,13.33
2018-04-17T07:52:26.489Z,13.46
2018-04-17T07:54:53.990Z,13.56
2018-04-17T07:57:21.495Z,13.68
2018-04-17T07:59:49.839Z,13.84
2018-04-17T08:02:17.686Z,13.99
2018-04-17T08:04:45.155Z,14.10
2018-04-17T08:07:12.646Z,14.19
2018-04-17T08:09:40.147Z,14.22
2018-04-17T08:12:07.650Z,14.40
2018-04-17T08:14:35.115Z,14.46
2018-04-17T08:17:02.607Z,14.54
2018-04-17T08:19:30.261Z,14.68
2018-04-17T08:21:57.766Z,14.79
2018-04-17T08:24:25.425Z,14.93
2018-04-17T08:26:52.930Z,15.05
2018-04-17T08:29:20.426Z,15.15
2018-04-17T08:31:47.948Z,15.29
2018-04-17T08:34:15.485Z,15.45
2018-04-17T08:36:42.992Z,15.54
2018-04-17T08:39:10.488Z,15.53
2018-04-17T08:41:38.001Z,15.60
2018-04-17T08:44:06.492Z,15.66
2018-04-17T08:46:33.987Z,15.85
2018-04-17T08:49:01.680Z,16.09
2018-04-17T08:51:29.289Z,16.21
2018-04-17T08:53:56.868Z,16.44
2018-04-17T08:56:24.406Z,16.62
2018-04-17T08:58:51.909Z,16.62
2018-04-17T09:01:19.423Z,16.79
2018-04-17T09:03:47.130Z,16.89
2018-04-17T09:06:14.639Z,17.00
2018-04-17T09:08:45.037Z,17.05
2018-04-17T09:11:12.856Z,17.21
2018-04-17T09:13:40.959Z,17.38
2018-04-17T09:16:08.483Z,17.53
2018-04-17T09:18:35.979Z,17.73
2018-04-17T09:21:03.455Z,17.88
2018-04-17T09:23:30.938Z,18.19
2018-04-17T09:25:58.436Z,18.26
2018-04-17T09:28:25.946Z,18.43
2018-04-17T09:30:53.526Z,18.64
2018-04-17T09:33:21.044Z,18.71
2018-04-17T09:35:48.821Z,19.08
2018-04-17T09:38:17.898Z,19.30
2018-04-17T09:40:45.387Z,19.66
2018-04-17T09:43:15.323Z,20.36
2018-04-17T09:45:44.696Z,20.92
2018-04-17T09:48:15.985Z,21.78
2018-04-17T09:50:47.183Z,22.10
2018-04-17T09:53:14.868Z,22.51
2018-04-17T09:55:42.395Z,22.91
2018-04-17T09:58:09.895Z,22.77
2018-04-17T10:00:43.168Z,23.86
2018-04-17T10:03:10.660Z,24.40
2018-04-17T10:05:38.187Z,25.12
2018-04-17T10:08:05.690Z,25.36
2018-04-17T10:10:33.305Z,26.41
2018-04-17T10:13:00.812Z,26.32
2018-04-17T10:15:28.282Z,26.44
2018-04-17T10:17:55.777Z,26.85
2018-04-17T10:20:23.362Z,26.89
2018-04-17T10:22:50.843Z,26.35
2018-04-17T10:25:18.371Z,26.62
2018-04-17T10:27:45.872Z,27.23
2018-04-17T10:30:13.403Z,27.43
2018-04-17T10:32:40.885Z,27.38
2018-04-17T10:35:08.399Z,27.81
2018-04-17T10:37:35.911Z,28.09
2018-04-17T10:40:03.436Z,28.57
2018-04-17T10:42:30.915Z,28.51
2018-04-17T10:44:58.501Z,28.16
2018-04-17T10:47:26.367Z,29.23
2018-04-17T10:49:53.873Z,29.43
2018-04-17T10:52:21.339Z,29.68
2018-04-17T10:54:48.835Z,29.26
2018-04-17T10:57:16.354Z,28.66
2018-04-17T10:59:43.862Z,29.20
2018-04-17T11:02:11.367Z,29.78
2018-04-17T11:04:38.907Z,30.18
2018-04-17T11:07:06.399Z,29.47
2018-04-17T11:09:33.932Z,30.01
2018-04-17T11:12:01.448Z,30.63
2018-04-17T11:14:28.954Z,30.61
2018-04-17T11:16:56.584Z,30.61
2018-04-17T11:19:24.138Z,30.80
2018-04-17T11:21:51.697Z,31.00
2018-04-17T11:24:19.265Z,31.46
2018-04-17T11:26:46.809Z,31.46
2018-04-17T11:29:15.424Z,31.92
2018-04-17T11:31:43.053Z,32.08
2018-04-17T11:34:10.571Z,31.50
2018-04-17T11:36:38.116Z,31.70
2018-04-17T11:39:12.703Z,31.14
2018-04-17T11:41:40.198Z,32.21
2018-04-17T11:44:07.751Z,31.82
2018-04-17T11:46:35.222Z,32.12
2018-04-17T11:49:02.718Z,32.79
2018-04-17T11:51:30.207Z,32.70
2018-04-17T11:53:57.705Z,33.15
2018-04-17T11:56:25.251Z,32.47
2018-04-17T11:58:52.736Z,32.90
2018-04-17T12:01:20.302Z,33.81
2018-04-17T12:03:47.787Z,34.92
2018-04-17T12:06:15.288Z,33.97
2018-04-17T12:08:42.772Z,33.72
2018-04-17T12:11:10.272Z,34.01
2018-04-17T12:13:37.744Z,34.32
2018-04-17T12:16:05.243Z,35.01
2018-04-17T12:18:32.714Z,35.93
2018-04-17T12:21:00.223Z,36.52
2018-04-17T12:23:27.721Z,35.67
2018-04-17T12:25:55.225Z,34.63
2018-04-17T12:28:22.703Z,36.13
2018-04-17T12:30:50.196Z,35.42
2018-04-17T12:33:17.699Z,35.81
2018-04-17T12:35:45.191Z,35.22
2018-04-17T12:38:12.666Z,36.40
2018-04-17T12:40:40.173Z,35.49
2018-04-17T12:43:07.685Z,34.79
2018-04-17T12:45:35.221Z,36.01
2018-04-17T12:48:02.695Z,37.19
2018-04-17T12:50:30.216Z,37.06
2018-04-17T12:52:57.720Z,36.42
2018-04-17T12:55:25.212Z,37.25
2018-04-17T12:57:52.688Z,36.83
2018-04-17T13:00:20.223Z,37.42
2018-04-17T13:02:47.692Z,38.64
2018-04-17T13:05:15.183Z,39.05
2018-04-17T13:07:42.655Z,40.26
2018-04-17T13:10:10.172Z,39.16
2018-04-17T13:12:37.646Z,38.72
2018-04-17T13:15:05.135Z,38.21
2018-04-17T13:17:32.612Z,36.98
2018-04-17T13:20:00.112Z,37.86
2018-04-17T13:22:27.595Z,39.23
2018-04-17T13:24:55.101Z,38.98
2018-04-17T13:27:22.641Z,40.21
2018-04-17T13:29:50.113Z,39.19
2018-04-17T13:32:17.611Z,40.20
2018-04-17T13:34:45.090Z,41.05
2018-04-17T13:37:12.596Z,38.55
2018-04-17T13:39:40.067Z,39.80
2018-04-17T13:42:07.555Z,40.87
2018-04-17T13:44:35.040Z,40.37
2018-04-17T13:47:02.563Z,40.47
2018-04-17T13:49:30.135Z,38.22
2018-04-17T13:51:57.629Z,38.93
2018-04-17T13:54:25.144Z,39.19
2018-04-17T13:56:52.640Z,40.97
2018-04-17T13:59:20.107Z,38.92
2018-04-17T14:01:47.672Z,39.11
2018-04-17T14:04:15.102Z,41.51
2018-04-17T14:06:42.630Z,40.17
2018-04-17T14:09:10.097Z,41.97
2018-04-17T14:11:37.599Z,39.04
2018-04-17T14:14:05.094Z,39.32
2018-04-17T14:16:32.585Z,39.78
2018-04-17T14:19:00.064Z,40.22
2018-04-17T14:21:27.591Z,38.52
2018-04-17T14:23:55.083Z,39.16
2018-04-17T14:26:22.784Z,39.27
2018-04-17T14:28:50.268Z,40.58
2018-04-17T14:31:17.906Z,41.33
2018-04-17T14:33:45.380Z,41.58
2018-04-17T14:36:12.912Z,38.24
2018-04-17T14:38:40.410Z,39.27
2018-04-17T14:41:07.928Z,40.25
2018-04-17T14:43:35.543Z,38.03
2018-04-17T14:46:03.043Z,39.61
2018-04-17T14:48:30.536Z,37.59
2018-04-17T14:50:58.476Z,37.73
2018-04-17T14:53:26.005Z,39.78
2018-04-17T14:55:53.663Z,37.49
2018-04-17T14:58:21.183Z,37.32
2018-04-17T15:00:48.655Z,35.71
2018-04-17T15:03:16.167Z,37.08
2018-04-17T15:05:43.633Z,37.54
2018-04-17T15:08:11.146Z,37.25
2018-04-17T15:10:38.643Z,37.05
2018-04-17T15:13:06.134Z,38.34
2018-04-17T15:15:33.826Z,37.84
2018-04-17T15:18:01.351Z,37.24
2018-04-17T15:20:28.821Z,36.49
2018-04-17T15:22:56.419Z,35.33
2018-04-17T15:25:23.925Z,33.69
2018-04-17T15:27:51.431Z,33.74
2018-04-17T15:30:18.936Z,33.19
2018-04-17T15:32:46.558Z,31.38
2018-04-17T15:35:14.025Z,31.28
2018-04-17T15:37:41.568Z,32.69
2018-04-17T15:40:09.049Z,32.22
2018-04-17T15:42:36.563Z,31.32
2018-04-17T15:45:04.047Z,30.92
2018-04-17T15:47:31.543Z,30.48
2018-04-17T15:49:59.048Z,30.71
2018-04-17T15:52:26.546Z,32.63
2018-04-17T15:54:54.015Z,33.72
2018-04-17T15:57:22.611Z,35.47
2018-04-17T15:59:50.103Z,35.78
2018-04-17T16:02:17.631Z,37.79
2018-04-17T16:04:45.104Z,38.41
2018-04-17T16:07:12.651Z,38.35
2018-04-17T16:09:40.158Z,37.84
2018-04-17T16:12:07.658Z,38.45
2018-04-17T16:14:35.140Z,37.45
2018-04-17T16:17:02.683Z,38.22
2018-04-17T16:19:30.160Z,39.28
2018-04-17T16:21:57.979Z,38.28
2018-04-17T16:24:25.449Z,39.20
2018-04-17T16:26:52.915Z,37.16
2018-04-17T16:29:20.465Z,37.88
2018-04-17T16:31:47.952Z,38.42
2018-04-17T16:34:15.444Z,37.84
2018-04-17T16:36:42.972Z,36.65
2018-04-17T16:39:10.467Z,36.85
2018-04-17T16:41:38.004Z,37.20
2018-04-17T16:44:05.495Z,35.64
2018-04-17T16:46:35.640Z,34.60
2018-04-17T16:49:03.227Z,34.12
2018-04-17T16:51:30.707Z,34.27
2018-04-17T16:53:58.308Z,32.63
2018-04-17T16:56:25.801Z,32.71
2018-04-17T16:58:53.355Z,30.96
2018-04-17T17:01:20.828Z,28.71
2018-04-17T17:03:48.558Z,27.04
2018-04-17T17:06:16.033Z,26.42
2018-04-17T17:08:43.533Z,26.03
2018-04-17T17:11:11.001Z,25.72
2018-04-17T17:13:38.503Z,25.56
2018-04-17T17:16:05.971Z,25.20
2018-04-17T17:18:33.464Z,25.14
2018-04-17T17:21:00.975Z,24.83
2018-04-17T17:23:28.487Z,24.65
2018-04-17T17:25:55.983Z,24.53
2018-04-17T17:28:23.612Z,24.45
2018-04-17T17:30:51.093Z,24.40
2018-04-17T17:33:18.607Z,24.23
2018-04-17T17:35:46.092Z,24.08
2018-04-17T17:38:13.624Z,23.87
2018-04-17T17:40:41.101Z,23.68
2018-04-17T17:43:08.663Z,23.65
2018-04-17T17:45:36.308Z,23.54
2018-04-17T17:48:03.859Z,23.37
2018-04-17T17:50:31.319Z,23.22
2018-04-17T17:52:58.843Z,23.08
2018-04-17T17:55:26.340Z,22.89
2018-04-17T17:57:53.849Z,22.75
2018-04-17T18:00:21.320Z,22.62
2018-04-17T18:02:48.786Z,22.48
2018-04-17T18:05:16.284Z,22.34
2018-04-17T18:07:43.751Z,22.22
2018-04-17T18:10:11.257Z,22.06
2018-04-17T18:12:38.739Z,21.90
2018-04-17T18:15:06.247Z,21.78
2018-04-17T18:17:33.751Z,21.59
2018-04-17T18:20:01.248Z,21.38
2018-04-17T18:22:28.719Z,21.14
2018-04-17T18:24:56.336Z,20.95
2018-04-17T18:27:23.905Z,20.84
2018-04-17T18:29:51.685Z,20.83
2018-04-17T18:32:19.166Z,20.82
2018-04-17T18:34:46.703Z,20.92
2018-04-17T18:37:14.179Z,20.99
2018-04-17T18:39:41.685Z,20.99
2018-04-17T18:42:09.376Z,20.91
2018-04-17T18:44:36.903Z,20.75
2018-04-17T18:47:04.398Z,20.54
2018-04-17T18:49:31.994Z,20.41
2018-04-17T18:51:59.475Z,20.23
2018-04-17T18:54:26.967Z,20.04
2018-04-17T18:56:54.447Z,19.89
2018-04-17T18:59:21.993Z,19.78
2018-04-17T19:01:49.524Z,19.63
2018-04-17T19:04:17.027Z,19.48
2018-04-17T19:06:44.510Z,19.30
2018-04-17T19:09:12.003Z,19.15
2018-04-17T19:11:39.483Z,19.02
2018-04-17T19:14:07.052Z,18.88
2018-04-17T19:16:34.525Z,18.77
2018-04-17T19:19:02.027Z,18.68
2018-04-17T19:21:29.540Z,18.62
2018-04-17T19:23:57.180Z,18.51
2018-04-17T19:26:24.763Z,18.40
2018-04-17T19:28:52.253Z,18.31
2018-04-17T19:31:19.768Z,18.18
2018-04-17T19:33:47.247Z,18.08
2018-04-17T19:36:14.744Z,17.97
2018-04-17T19:38:42.211Z,17.94
2018-04-17T19:41:09.727Z,17.91
2018-04-17T19:43:37.704Z,17.84
2018-04-17T19:46:05.195Z,17.80
2018-04-17T19:48:32.659Z,17.80
2018-04-17T19:51:00.234Z,17.80
2018-04-17T19:53:27.764Z,17.75
2018-04-17T19:55:55.264Z,17.74
2018-04-17T19:58:22.790Z,17.63
2018-04-17T20:00:50.391Z,17.69
2018-04-17T20:03:17.916Z,17.63
2018-04-17T20:05:45.407Z,17.55
2018-04-17T20:08:12.953Z,17.44
2018-04-17T20:10:40.447Z,17.39
2018-04-17T20:13:07.943Z,17.41
2018-04-17T20:15:35.435Z,17.43
2018-04-17T20:18:02.925Z,17.51
2018-04-17T20:20:30.452Z,17.43
2018-04-17T20:22:57.939Z,17.41
2018-04-17T20:25:25.454Z,17.34
2018-04-17T20:27:52.989Z,17.24
2018-04-17T20:30:20.480Z,17.25
2018-04-17T20:32:48.040Z,17.15
2018-04-17T20:35:15.539Z,17.02
2018-04-17T20:37:43.016Z,16.93
2018-04-17T20:40:10.509Z,16.82
2018-04-17T20:42:38.052Z,16.73
2018-04-17T20:45:05.634Z,16.61
2018-04-17T20:47:33.121Z,16.45
2018-04-17T20:50:00.615Z,16.38
2018-04-17T20:52:28.115Z,16.34
2018-04-17T20:54:55.601Z,16.25
2018-04-17T20:57:23.107Z,16.24
2018-04-17T20:59:50.583Z,16.17
2018-04-17T21:02:18.085Z,16.16
2018-04-17T21:04:45.552Z,16.24
2018-04-17T21:07:13.056Z,16.30
2018-04-17T21:09:40.526Z,16.33
2018-04-17T21:12:08.148Z,16.34
2018-04-17T21:14:36.733Z,16.31
2018-04-17T21:17:04.228Z,16.40
2018-04-17T21:19:31.707Z,16.48
2018-04-17T21:21:59.311Z,16.52
2018-04-17T21:24:26.826Z,16.54
2018-04-17T21:26:55.254Z,16.63
2018-04-17T21:29:22.896Z,16.64
2018-04-17T21:31:50.467Z,16.54
2018-04-17T21:34:17.947Z,16.57
2018-04-17T21:36:45.476Z,16.58
2018-04-17T21:39:12.959Z,16.63
2018-04-17T21:41:40.467Z,16.70
2018-04-17T21:44:07.931Z,16.71
2018-04-17T21:46:35.426Z,16.66
2018-04-17T21:49:03.618Z,16.57
2018-04-17T21:51:31.205Z,16.55
2018-04-17T21:53:58.743Z,16.55
2018-04-17T21:56:26.240Z,16.59
2018-04-17T21:58:53.938Z,16.47
2018-04-17T22:01:36.353Z,16.53
2018-04-17T22:04:04.158Z,16.43
2018-04-17T22:06:31.641Z,16.51
2018-04-17T22:08:59.170Z,16.56
2018-04-17T22:11:26.697Z,16.61
2018-04-17T22:13:54.167Z,16.62
2018-04-17T22:16:21.655Z,16.59
2018-04-17T22:18:49.162Z,16.55
2018-04-17T22:21:16.799Z,16.60
2018-04-17T22:23:44.324Z,16.61
2018-04-17T22:26:11.842Z,16.58
2018-04-17T22:28:39.315Z,16.53
2018-04-17T22:31:06.807Z,16.48
2018-04-17T22:33:34.287Z,16.42
2018-04-17T22:36:01.779Z,16.38
2018-04-17T22:38:29.267Z,16.31
2018-04-17T22:40:56.760Z,16.25
2018-04-17T22:43:24.251Z,16.14
2018-04-17T22:45:51.719Z,16.11
2018-04-17T22:48:19.203Z,16.16
2018-04-17T22:50:46.667Z,16.13
2018-04-17T22:53:14.184Z,16.11
2018-04-17T22:55:41.659Z,15.96
2018-04-17T22:58:09.151Z,15.94
2018-04-17T23:00:36.663Z,15.88
2018-04-17T23:03:04.196Z,15.81
2018-04-17T23:05:31.663Z,15.53
2018-04-17T23:07:59.562Z,15.16
2018-04-17T23:10:27.101Z,14.85
2018-04-17T23:12:54.660Z,14.57
2018-04-17T23:15:22.128Z,14.35
2018-04-17T23:17:49.621Z,14.20
2018-04-17T23:20:17.114Z,14.05
2018-04-17T23:22:44.603Z,13.96
2018-04-17T23:25:12.068Z,13.90
2018-04-17T23:27:39.562Z,13.88
2018-04-17T23:30:07.087Z,13.87
2018-04-17T23:32:34.586Z,13.80
2018-04-17T23:35:02.088Z,13.75
2018-04-17T23:37:29.791Z,13.76
2018-04-17T23:39:57.350Z,13.79
2018-04-17T23:42:24.862Z,13.76
2018-04-17T23:44:52.471Z,13.69
2018-04-17T23:47:20.004Z,13.72
2018-04-17T23:49:47.551Z,13.65
2018-04-17T23:52:15.051Z,13.66
2018-04-17T23:54:42.519Z,13.70
2018-04-17T23:57:10.009Z,13.53
2018-04-17T23:59:37.507Z,13.40
